sensor_id;sensor_type;location;lat;lon;timestamp;pressure;altitude;pressure_sealevel;temperature;humidity
5877;BME280;2964;42.144;24.730;2023-02-17T00:01:57;142015.56;;;1.56;92.49
5877;BME280;2964;42.144;24.730;2023-02-17T00:04:26;142005.59;;;1.51;92.90
5877;BME280;2964;42.144;24.730;2023-02-17T00:06:53;141996.84;;;1.48;92.57
5877;BME280;2964;42.144;24.730;2023-02-17T00:09:19;141952.00;;;1.29;93.08
5877;BME280;2964;42.144;24.730;2023-02-17T00:11:47;141969.44;;;1.37;93.24
5877;BME280;2964;42.144;24.730;2023-02-17T00:14:14;141979.41;;;1.41;93.48
5877;BME280;2964;42.144;24.730;2023-02-17T00:16:41;141966.94;;;1.35;93.59
5877;BME280;2964;42.144;24.730;2023-02-17T00:19:09;141970.69;;;1.37;93.31
5877;BME280;2964;42.144;24.730;2023-02-17T00:21:48;142168.91;;;2.19;89.40
5877;BME280;2964;42.144;24.730;2023-02-17T00:24:15;142188.88;;;2.27;88.50
5877;BME280;2964;42.144;24.730;2023-02-17T00:26:42;142101.56;;;1.91;88.87
5877;BME280;2964;42.144;24.730;2023-02-17T00:29:10;142203.84;;;2.33;88.12
5877;BME280;2964;42.144;24.730;2023-02-17T00:31:37;142119.03;;;1.98;87.61
5877;BME280;2964;42.144;24.730;2023-02-17T00:34:04;141981.88;;;1.42;89.76
5877;BME280;2964;42.144;24.730;2023-02-17T00:36:30;142136.50;;;2.05;88.55
5877;BME280;2964;42.144;24.730;2023-02-17T00:38:58;142090.38;;;1.86;89.15
5877;BME280;2964;42.144;24.730;2023-02-17T00:41:25;141995.59;;;1.47;89.99
5877;BME280;2964;42.144;24.730;2023-02-17T00:43:52;141994.34;;;1.47;89.43
5877;BME280;2964;42.144;24.730;2023-02-17T00:46:20;141939.53;;;1.24;91.14
5877;BME280;2964;42.144;24.730;2023-02-17T00:48:48;141880.97;;;1.00;92.94
5877;BME280;2964;42.144;24.730;2023-02-17T00:51:16;141864.75;;;0.93;93.94
5877;BME280;2964;42.144;24.730;2023-02-17T00:53:42;141865.97;;;0.94;94.42
5877;BME280;2964;42.144;24.730;2023-02-17T00:56:09;141895.91;;;1.06;93.97
5877;BME280;2964;42.144;24.730;2023-02-17T00:58:37;141912.13;;;1.13;93.84
5877;BME280;2964;42.144;24.730;2023-02-17T01:01:04;141883.44;;;1.01;94.68
5877;BME280;2964;42.144;24.730;2023-02-17T01:03:32;141929.56;;;1.20;94.18
5877;BME280;2964;42.144;24.730;2023-02-17T01:05:58;141894.66;;;1.06;93.84
5877;BME280;2964;42.144;24.730;2023-02-17T01:08:29;141841.09;;;0.84;94.45
5877;BME280;2964;42.144;24.730;2023-02-17T01:10:56;141804.97;;;0.69;95.49
5877;BME280;2964;42.144;24.730;2023-02-17T01:13:23;141804.97;;;0.69;96.34
5877;BME280;2964;42.144;24.730;2023-02-17T01:15:51;141899.66;;;1.08;94.58
5877;BME280;2964;42.144;24.730;2023-02-17T01:18:20;141807.44;;;0.70;95.32
5877;BME280;2964;42.144;24.730;2023-02-17T01:20:48;141790.00;;;0.63;96.53
5877;BME280;2964;42.144;24.730;2023-02-17T01:23:15;141800.00;;;0.67;96.09
5877;BME280;2964;42.144;24.730;2023-02-17T01:25:44;141819.91;;;0.75;95.27
5877;BME280;2964;42.144;24.730;2023-02-17T01:28:16;141811.19;;;0.71;95.53
5877;BME280;2964;42.144;24.730;2023-02-17T01:30:43;141787.53;;;0.62;95.91
5877;BME280;2964;42.144;24.730;2023-02-17T01:33:10;141766.34;;;0.53;96.26
5877;BME280;2964;42.144;24.730;2023-02-17T01:35:37;141775.06;;;0.56;97.13
5877;BME280;2964;42.144;24.730;2023-02-17T01:38:05;141809.94;;;0.71;96.29
5877;BME280;2964;42.144;24.730;2023-02-17T01:40:32;141846.06;;;0.86;95.74
5877;BME280;2964;42.144;24.730;2023-02-17T01:42:59;141763.88;;;0.52;95.94
5877;BME280;2964;42.144;24.730;2023-02-17T01:45:37;141787.53;;;0.62;96.17
5877;BME280;2964;42.144;24.730;2023-02-17T01:48:09;141778.81;;;0.58;96.28
5877;BME280;2964;42.144;24.730;2023-02-17T01:50:40;141796.25;;;0.65;95.94
5877;BME280;2964;42.144;24.730;2023-02-17T01:53:12;141777.59;;;0.57;96.73
5877;BME280;2964;42.144;24.730;2023-02-17T01:55:40;141763.88;;;0.52;97.22
5877;BME280;2964;42.144;24.730;2023-02-17T01:58:10;141795.03;;;0.65;97.08
5877;BME280;2964;42.144;24.730;2023-02-17T02:00:39;141770.09;;;0.54;96.68
5877;BME280;2964;42.144;24.730;2023-02-17T02:03:08;141775.06;;;0.56;96.38
5877;BME280;2964;42.144;24.730;2023-02-17T02:05:37;141841.09;;;0.84;94.60
5877;BME280;2964;42.144;24.730;2023-02-17T02:08:05;141887.19;;;1.03;94.41
5877;BME280;2964;42.144;24.730;2023-02-17T02:10:33;141852.28;;;0.88;93.28
5877;BME280;2964;42.144;24.730;2023-02-17T02:13:00;141826.16;;;0.77;94.89
5877;BME280;2964;42.144;24.730;2023-02-17T02:15:33;141782.56;;;0.60;95.80
5877;BME280;2964;42.144;24.730;2023-02-17T02:18:18;141756.41;;;0.49;95.93
5877;BME280;2964;42.144;24.730;2023-02-17T02:21:07;141821.13;;;0.75;94.38
5877;BME280;2964;42.144;24.730;2023-02-17T02:26:52;141865.97;;;0.94;92.92
5877;BME280;2964;42.144;24.730;2023-02-17T02:32:37;141707.81;;;0.29;96.29
5877;BME280;2964;42.144;24.730;2023-02-17T02:35:07;141858.53;;;0.91;94.37
5877;BME280;2964;42.144;24.730;2023-02-17T02:37:42;141715.31;;;0.32;95.84
5877;BME280;2964;42.144;24.730;2023-02-17T02:40:13;141697.88;;;0.25;96.58
5877;BME280;2964;42.144;24.730;2023-02-17T02:42:42;141707.81;;;0.29;96.69
5877;BME280;2964;42.144;24.730;2023-02-17T02:45:11;141636.84;;;-0.01;97.47
5877;BME280;2964;42.144;24.730;2023-02-17T02:47:44;141534.78;;;-0.43;98.26
5877;BME280;2964;42.144;24.730;2023-02-17T02:50:12;141677.94;;;0.16;98.23
5877;BME280;2964;42.144;24.730;2023-02-17T02:52:57;141778.81;;;0.58;97.63
5877;BME280;2964;42.144;24.730;2023-02-17T02:55:36;141787.53;;;0.62;96.49
5877;BME280;2964;42.144;24.730;2023-02-17T02:58:13;141675.47;;;0.15;96.88
5877;BME280;2964;42.144;24.730;2023-02-17T03:00:48;141648.09;;;0.04;98.31
5877;BME280;2964;42.144;24.730;2023-02-17T03:03:23;141798.72;;;0.66;96.17
5877;BME280;2964;42.144;24.730;2023-02-17T03:05:56;141646.81;;;0.04;96.03
5877;BME280;2964;42.144;24.730;2023-02-17T03:08:29;141600.75;;;-0.15;97.94
5877;BME280;2964;42.144;24.730;2023-02-17T03:10:56;141692.91;;;0.23;98.24
5877;BME280;2964;42.144;24.730;2023-02-17T03:13:23;141623.16;;;-0.06;98.29
5877;BME280;2964;42.144;24.730;2023-02-17T03:15:50;141665.50;;;0.11;98.58
5877;BME280;2964;42.144;24.730;2023-02-17T03:18:21;141702.84;;;0.27;96.93
5877;BME280;2964;42.144;24.730;2023-02-17T03:20:53;141628.13;;;-0.04;98.52
5877;BME280;2964;42.144;24.730;2023-02-17T03:23:21;141709.06;;;0.29;97.04
5877;BME280;2964;42.144;24.730;2023-02-17T03:25:48;141625.69;;;-0.05;97.88
5877;BME280;2964;42.144;24.730;2023-02-17T03:28:14;141707.81;;;0.29;98.14
5877;BME280;2964;42.144;24.730;2023-02-17T03:30:41;141741.47;;;0.43;96.38
5877;BME280;2964;42.144;24.730;2023-02-17T03:33:08;141660.53;;;0.09;97.40
5877;BME280;2964;42.144;24.730;2023-02-17T03:35:36;141644.34;;;0.03;98.47
5877;BME280;2964;42.144;24.730;2023-02-17T03:38:02;141650.53;;;0.05;98.11
5877;BME280;2964;42.144;24.730;2023-02-17T03:40:29;141767.56;;;0.53;96.70
5877;BME280;2964;42.144;24.730;2023-02-17T03:42:56;141800.00;;;0.67;95.89
5877;BME280;2964;42.144;24.730;2023-02-17T03:45:23;141843.56;;;0.85;94.71
5877;BME280;2964;42.144;24.730;2023-02-17T03:47:50;141879.69;;;1.00;93.21
5877;BME280;2964;42.144;24.730;2023-02-17T03:50:16;141782.56;;;0.60;93.15
5877;BME280;2964;42.144;24.730;2023-02-17T03:52:45;141781.31;;;0.59;94.77
5877;BME280;2964;42.144;24.730;2023-02-17T03:55:17;141803.75;;;0.68;93.24
5877;BME280;2964;42.144;24.730;2023-02-17T03:57:43;141686.66;;;0.20;94.79
5877;BME280;2964;42.144;24.730;2023-02-17T04:00:11;141687.91;;;0.21;95.58
5877;BME280;2964;42.144;24.730;2023-02-17T04:02:38;141644.34;;;0.03;95.17
5877;BME280;2964;42.144;24.730;2023-02-17T04:05:05;141595.78;;;-0.17;95.78
5877;BME280;2964;42.144;24.730;2023-02-17T04:07:32;141578.34;;;-0.25;97.43
5877;BME280;2964;42.144;24.730;2023-02-17T04:10:00;141536.06;;;-0.42;96.75
5877;BME280;2964;42.144;24.730;2023-02-17T04:12:27;141502.47;;;-0.56;98.20
5877;BME280;2964;42.144;24.730;2023-02-17T04:14:54;141477.59;;;-0.66;98.86
5877;BME280;2964;42.144;24.730;2023-02-17T04:17:20;141478.84;;;-0.66;99.32
5877;BME280;2964;42.144;24.730;2023-02-17T04:19:47;141463.91;;;-0.72;99.47
5877;BME280;2964;42.144;24.730;2023-02-17T04:22:13;141472.59;;;-0.68;99.67
5877;BME280;2964;42.144;24.730;2023-02-17T04:24:40;141493.75;;;-0.60;99.77
5877;BME280;2964;42.144;24.730;2023-02-17T04:27:08;141508.72;;;-0.53;99.32
5877;BME280;2964;42.144;24.730;2023-02-17T04:29:35;141494.97;;;-0.59;99.71
5877;BME280;2964;42.144;24.730;2023-02-17T04:32:02;141466.38;;;-0.71;100.00
5877;BME280;2964;42.144;24.730;2023-02-17T04:34:28;141455.22;;;-0.75;100.00
5877;BME280;2964;42.144;24.730;2023-02-17T04:36:55;141461.41;;;-0.73;100.00
5877;BME280;2964;42.144;24.730;2023-02-17T04:39:22;141543.50;;;-0.39;100.00
5877;BME280;2964;42.144;24.730;2023-02-17T04:41:49;141646.81;;;0.04;97.95
5877;BME280;2964;42.144;24.730;2023-02-17T04:44:17;141625.69;;;-0.05;97.29
5877;BME280;2964;42.144;24.730;2023-02-17T04:46:43;141670.50;;;0.13;95.98
5877;BME280;2964;42.144;24.730;2023-02-17T04:49:10;141726.50;;;0.36;93.54
5877;BME280;2964;42.144;24.730;2023-02-17T04:51:37;141548.47;;;-0.37;95.39
5877;BME280;2964;42.144;24.730;2023-02-17T04:54:04;141508.72;;;-0.53;96.91
5877;BME280;2964;42.144;24.730;2023-02-17T04:56:30;141546.00;;;-0.38;96.60
5877;BME280;2964;42.144;24.730;2023-02-17T04:58:57;141665.50;;;0.11;96.08
5877;BME280;2964;42.144;24.730;2023-02-17T05:01:25;141667.97;;;0.12;94.66
5877;BME280;2964;42.144;24.730;2023-02-17T05:03:51;141797.47;;;0.66;93.01
5877;BME280;2964;42.144;24.730;2023-02-17T05:06:20;141671.72;;;0.14;93.52
5877;BME280;2964;42.144;24.730;2023-02-17T05:08:58;141672.97;;;0.14;95.00
5877;BME280;2964;42.144;24.730;2023-02-17T05:11:25;141735.22;;;0.40;94.17
5877;BME280;2964;42.144;24.730;2023-02-17T05:13:52;141548.47;;;-0.37;95.15
5877;BME280;2964;42.144;24.730;2023-02-17T05:16:18;141567.19;;;-0.29;95.82
5877;BME280;2964;42.144;24.730;2023-02-17T05:18:46;141541.03;;;-0.40;94.83
5877;BME280;2964;42.144;24.730;2023-02-17T05:21:13;141538.53;;;-0.41;96.30
5877;BME280;2964;42.144;24.730;2023-02-17T05:23:40;141491.28;;;-0.61;97.90
5877;BME280;2964;42.144;24.730;2023-02-17T05:26:07;141547.25;;;-0.37;97.70
5877;BME280;2964;42.144;24.730;2023-02-17T05:28:34;141536.06;;;-0.42;97.78
5877;BME280;2964;42.144;24.730;2023-02-17T05:31:01;141659.25;;;0.09;97.06
5877;BME280;2964;42.144;24.730;2023-02-17T05:33:28;141613.22;;;-0.10;95.54
5877;BME280;2964;42.144;24.730;2023-02-17T05:36:00;141549.75;;;-0.36;97.29
5877;BME280;2964;42.144;24.730;2023-02-17T05:38:27;141600.75;;;-0.15;97.35
5877;BME280;2964;42.144;24.730;2023-02-17T05:40:53;141626.91;;;-0.05;97.63
5877;BME280;2964;42.144;24.730;2023-02-17T05:43:20;141616.97;;;-0.09;97.56
5877;BME280;2964;42.144;24.730;2023-02-17T05:45:47;141722.75;;;0.35;96.54
5877;BME280;2964;42.144;24.730;2023-02-17T05:48:13;141705.34;;;0.28;96.25
5877;BME280;2964;42.144;24.730;2023-02-17T05:50:40;141790.00;;;0.63;96.42
5877;BME280;2964;42.144;24.730;2023-02-17T05:53:08;141823.66;;;0.76;95.06
5877;BME280;2964;42.144;24.730;2023-02-17T05:55:35;141930.78;;;1.21;92.64
5877;BME280;2964;42.144;24.730;2023-02-17T05:58:20;141590.81;;;-0.20;92.65
5877;BME280;2964;42.144;24.730;2023-02-17T06:01:07;141937.00;;;1.23;91.35
5877;BME280;2964;42.144;24.730;2023-02-17T06:03:35;141865.97;;;0.94;92.18
5877;BME280;2964;42.144;24.730;2023-02-17T06:06:02;141879.69;;;1.00;92.00
5877;BME280;2964;42.144;24.730;2023-02-17T06:08:30;141892.16;;;1.05;91.94
5877;BME280;2964;42.144;24.730;2023-02-17T06:10:57;141902.16;;;1.09;92.18
5877;BME280;2964;42.144;24.730;2023-02-17T06:13:24;141884.72;;;1.02;91.52
5877;BME280;2964;42.144;24.730;2023-02-17T06:15:50;142016.78;;;1.56;90.74
5877;BME280;2964;42.144;24.730;2023-02-17T06:18:17;142047.94;;;1.69;88.52
5877;BME280;2964;42.144;24.730;2023-02-17T06:20:44;141983.16;;;1.42;89.58
5877;BME280;2964;42.144;24.730;2023-02-17T06:23:10;141996.84;;;1.48;90.67
5877;BME280;2964;42.144;24.730;2023-02-17T06:25:38;142076.59;;;1.81;89.68
5877;BME280;2964;42.144;24.730;2023-02-17T06:28:05;142079.13;;;1.82;89.84
5877;BME280;2964;42.144;24.730;2023-02-17T06:30:32;142114.03;;;1.96;89.77
5877;BME280;2964;42.144;24.730;2023-02-17T06:32:59;142079.13;;;1.82;89.36
5877;BME280;2964;42.144;24.730;2023-02-17T06:35:25;142166.44;;;2.18;88.09
5877;BME280;2964;42.144;24.730;2023-02-17T06:37:52;142141.47;;;2.07;87.54
5877;BME280;2964;42.144;24.730;2023-02-17T06:40:19;142218.78;;;2.39;86.71
5877;BME280;2964;42.144;24.730;2023-02-17T06:42:47;142279.94;;;2.64;86.28
5877;BME280;2964;42.144;24.730;2023-02-17T06:45:14;142361.03;;;2.98;85.39
5877;BME280;2964;42.144;24.730;2023-02-17T06:47:41;142460.91;;;3.39;83.81
5877;BME280;2964;42.144;24.730;2023-02-17T06:50:08;142417.19;;;3.21;83.27
5877;BME280;2964;42.144;24.730;2023-02-17T06:52:36;142495.88;;;3.53;83.24
5877;BME280;2964;42.144;24.730;2023-02-17T06:55:03;142565.81;;;3.82;81.97
5877;BME280;2964;42.144;24.730;2023-02-17T06:57:30;142550.81;;;3.76;80.09
5877;BME280;2964;42.144;24.730;2023-02-17T06:59:58;142554.56;;;3.77;80.01
5877;BME280;2964;42.144;24.730;2023-02-17T07:02:25;142635.75;;;4.11;79.18
5877;BME280;2964;42.144;24.730;2023-02-17T07:04:52;142724.47;;;4.47;79.16
5877;BME280;2964;42.144;24.730;2023-02-17T07:07:19;142822.00;;;4.87;77.78
5877;BME280;2964;42.144;24.730;2023-02-17T07:09:45;142715.72;;;4.43;76.44
5877;BME280;2964;42.144;24.730;2023-02-17T07:12:12;142914.47;;;5.25;75.13
5877;BME280;2964;42.144;24.730;2023-02-17T07:14:39;143083.38;;;5.94;72.51
5877;BME280;2964;42.144;24.730;2023-02-17T07:17:07;143035.81;;;5.75;73.17
5877;BME280;2964;42.144;24.730;2023-02-17T07:19:34;143110.94;;;6.06;72.02
5877;BME280;2964;42.144;24.730;2023-02-17T07:22:00;143231.13;;;6.55;69.44
5877;BME280;2964;42.144;24.730;2023-02-17T07:24:27;143236.13;;;6.57;68.78
5877;BME280;2964;42.144;24.730;2023-02-17T07:26:54;143356.31;;;7.06;67.45
5877;BME280;2964;42.144;24.730;2023-02-17T07:29:21;143377.59;;;7.15;65.36
5877;BME280;2964;42.144;24.730;2023-02-17T07:31:47;143481.59;;;7.58;62.60
5877;BME280;2964;42.144;24.730;2023-02-17T07:34:15;143496.66;;;7.64;63.07
5877;BME280;2964;42.144;24.730;2023-02-17T07:36:42;143551.78;;;7.86;60.72
5877;BME280;2964;42.144;24.730;2023-02-17T07:39:09;143611.94;;;8.11;61.53
5877;BME280;2964;42.144;24.730;2023-02-17T07:41:36;143601.91;;;8.07;60.57
5877;BME280;2964;42.144;24.730;2023-02-17T07:44:02;143594.38;;;8.04;58.86
5877;BME280;2964;42.144;24.730;2023-02-17T07:46:29;143599.38;;;8.06;59.14
5877;BME280;2964;42.144;24.730;2023-02-17T07:48:56;143574.34;;;7.96;59.55
5877;BME280;2964;42.144;24.730;2023-02-17T07:51:24;143351.28;;;7.04;61.79
5877;BME280;2964;42.144;24.730;2023-02-17T07:53:51;143381.38;;;7.17;63.43
5877;BME280;2964;42.144;24.730;2023-02-17T07:56:20;143491.66;;;7.62;61.24
5877;BME280;2964;42.144;24.730;2023-02-17T07:58:48;143318.75;;;6.91;63.66
5877;BME280;2964;42.144;24.730;2023-02-17T08:01:18;143494.13;;;7.63;63.49
5877;BME280;2964;42.144;24.730;2023-02-17T08:03:45;143628.25;;;8.18;60.15
5877;BME280;2964;42.144;24.730;2023-02-17T08:06:14;143738.59;;;8.63;58.44
5877;BME280;2964;42.144;24.730;2023-02-17T08:08:43;143620.72;;;8.15;60.12
5877;BME280;2964;42.144;24.730;2023-02-17T08:11:28;143687.22;;;8.42;60.79
5877;BME280;2964;42.144;24.730;2023-02-17T08:14:13;143624.47;;;8.16;59.22
5877;BME280;2964;42.144;24.730;2023-02-17T08:16:40;143886.63;;;9.23;58.22
5877;BME280;2964;42.144;24.730;2023-02-17T08:19:08;143965.72;;;9.56;56.62
5877;BME280;2964;42.144;24.730;2023-02-17T08:21:34;144037.25;;;9.85;55.45
5877;BME280;2964;42.144;24.730;2023-02-17T08:24:03;144081.16;;;10.03;54.93
5877;BME280;2964;42.144;24.730;2023-02-17T08:26:29;144171.63;;;10.40;55.29
5877;BME280;2964;42.144;24.730;2023-02-17T08:28:56;144209.34;;;10.55;53.58
5877;BME280;2964;42.144;24.730;2023-02-17T08:31:25;144394.03;;;11.31;51.42
5877;BME280;2964;42.144;24.730;2023-02-17T08:33:52;144352.53;;;11.14;51.72
5877;BME280;2964;42.144;24.730;2023-02-17T08:36:20;144308.59;;;10.96;52.32
5877;BME280;2964;42.144;24.730;2023-02-17T08:38:47;144382.72;;;11.26;52.00
5877;BME280;2964;42.144;24.730;2023-02-17T08:41:19;144510.94;;;11.78;51.08
5877;BME280;2964;42.144;24.730;2023-02-17T08:43:46;144576.38;;;12.05;50.65
5877;BME280;2964;42.144;24.730;2023-02-17T08:46:14;144702.16;;;12.57;48.84
5877;BME280;2964;42.144;24.730;2023-02-17T08:48:41;144717.22;;;12.63;48.93
5877;BME280;2964;42.144;24.730;2023-02-17T08:51:11;144663.13;;;12.41;49.21
5877;BME280;2964;42.144;24.730;2023-02-17T08:53:39;144713.44;;;12.61;49.56
5877;BME280;2964;42.144;24.730;2023-02-17T08:56:06;144980.31;;;13.70;48.61
5877;BME280;2964;42.144;24.730;2023-02-17T08:58:35;145103.78;;;14.20;45.96
5877;BME280;2964;42.144;24.730;2023-02-17T09:01:03;145307.97;;;15.03;44.80
5877;BME280;2964;42.144;24.730;2023-02-17T09:03:32;145574.03;;;16.12;42.08
5877;BME280;2964;42.144;24.730;2023-02-17T09:05:59;145904.78;;;17.46;36.83
5877;BME280;2964;42.144;24.730;2023-02-17T09:08:26;146026.06;;;17.96;34.32
5877;BME280;2964;42.144;24.730;2023-02-17T09:10:53;146245.97;;;18.85;32.82
5877;BME280;2964;42.144;24.730;2023-02-17T09:13:20;146117.03;;;18.32;33.03
5877;BME280;2964;42.144;24.730;2023-02-17T09:15:48;145341.97;;;15.17;37.11
5877;BME280;2964;42.144;24.730;2023-02-17T09:18:18;145174.31;;;14.49;38.59
5877;BME280;2964;42.144;24.730;2023-02-17T09:20:45;145294.09;;;14.98;37.66
5877;BME280;2964;42.144;24.730;2023-02-17T09:23:12;145280.25;;;14.92;34.85
5877;BME280;2964;42.144;24.730;2023-02-17T09:25:38;145478.13;;;15.73;33.95
5877;BME280;2964;42.144;24.730;2023-02-17T09:28:05;145690.13;;;16.59;30.69
5877;BME280;2964;42.144;24.730;2023-02-17T09:30:32;146005.88;;;17.87;28.56
5877;BME280;2964;42.144;24.730;2023-02-17T09:33:00;146185.28;;;18.60;26.62
5877;BME280;2964;42.144;24.730;2023-02-17T09:35:27;146219.41;;;18.74;25.87
5877;BME280;2964;42.144;24.730;2023-02-17T09:37:54;146233.31;;;18.80;25.87
5877;BME280;2964;42.144;24.730;2023-02-17T09:40:23;146467.31;;;19.75;24.82
5877;BME280;2964;42.144;24.730;2023-02-17T09:42:53;146645.69;;;20.47;24.14
5877;BME280;2964;42.144;24.730;2023-02-17T09:45:23;146712.81;;;20.74;23.19
5877;BME280;2964;42.144;24.730;2023-02-17T09:47:54;146560.94;;;20.13;23.74
5877;BME280;2964;42.144;24.730;2023-02-17T09:50:28;146728.03;;;20.80;23.71
5877;BME280;2964;42.144;24.730;2023-02-17T09:53:02;146582.47;;;20.21;24.22
5877;BME280;2964;42.144;24.730;2023-02-17T09:55:32;146930.66;;;21.63;23.08
5877;BME280;2964;42.144;24.730;2023-02-17T09:58:05;146969.94;;;21.78;22.23
5877;BME280;2964;42.144;24.730;2023-02-17T10:00:38;147266.50;;;22.99;21.67
5877;BME280;2964;42.144;24.730;2023-02-17T10:03:11;147589.97;;;24.30;19.97
5877;BME280;2964;42.144;24.730;2023-02-17T10:05:45;147757.56;;;24.97;19.66
5877;BME280;2964;42.144;24.730;2023-02-17T10:08:17;147588.72;;;24.29;19.62
5877;BME280;2964;42.144;24.730;2023-02-17T10:10:49;147814.66;;;25.20;19.69
5877;BME280;2964;42.144;24.730;2023-02-17T10:13:21;148422.19;;;27.66;18.38
5877;BME280;2964;42.144;24.730;2023-02-17T10:15:51;147701.69;;;24.75;19.44
5877;BME280;2964;42.144;24.730;2023-02-17T10:18:21;147004.09;;;21.92;20.82
5877;BME280;2964;42.144;24.730;2023-02-17T10:20:58;146640.63;;;20.45;23.64
5877;BME280;2964;42.144;24.730;2023-02-17T10:23:27;146343.34;;;19.24;24.57
5877;BME280;2964;42.144;24.730;2023-02-17T10:26:13;146202.97;;;18.67;25.41
5877;BME280;2964;42.144;24.730;2023-02-17T10:28:49;146066.50;;;18.12;26.21
5877;BME280;2964;42.144;24.730;2023-02-17T10:31:25;146076.59;;;18.16;26.37
5877;BME280;2964;42.144;24.730;2023-02-17T10:34:00;146031.13;;;17.98;26.07
5877;BME280;2964;42.144;24.730;2023-02-17T10:36:36;145846.72;;;17.23;27.08
5877;BME280;2964;42.144;24.730;2023-02-17T10:39:12;145861.88;;;17.29;27.28
5877;BME280;2964;42.144;24.730;2023-02-17T10:41:39;145850.47;;;17.24;27.77
5877;BME280;2964;42.144;24.730;2023-02-17T10:44:12;145856.81;;;17.27;27.76
5877;BME280;2964;42.144;24.730;2023-02-17T10:46:42;145787.34;;;16.98;26.78
5877;BME280;2964;42.144;24.730;2023-02-17T10:49:17;145815.16;;;17.10;26.90
5877;BME280;2964;42.144;24.730;2023-02-17T10:51:48;145789.91;;;17.00;27.20
5877;BME280;2964;42.144;24.730;2023-02-17T10:54:26;145794.94;;;17.02;27.22
5877;BME280;2964;42.144;24.730;2023-02-17T10:56:56;145802.53;;;17.05;27.15
5877;BME280;2964;42.144;24.730;2023-02-17T10:59:27;145805.03;;;17.06;26.85
5877;BME280;2964;42.144;24.730;2023-02-17T11:01:57;145812.63;;;17.09;27.17
5877;BME280;2964;42.144;24.730;2023-02-17T11:04:40;145824.00;;;17.13;26.39
5877;BME280;2964;42.144;24.730;2023-02-17T11:07:09;145808.81;;;17.07;26.48
5877;BME280;2964;42.144;24.730;2023-02-17T11:09:39;145810.06;;;17.08;26.72
5877;BME280;2964;42.144;24.730;2023-02-17T11:12:12;145786.09;;;16.98;26.51
5877;BME280;2964;42.144;24.730;2023-02-17T11:14:43;145763.38;;;16.89;26.94
5877;BME280;2964;42.144;24.730;2023-02-17T11:17:14;145798.72;;;17.03;27.01
5877;BME280;2964;42.144;24.730;2023-02-17T11:19:54;145835.34;;;17.18;26.57
5877;BME280;2964;42.144;24.730;2023-02-17T11:22:33;145818.91;;;17.11;26.82
5877;BME280;2964;42.144;24.730;2023-02-17T11:25:04;145842.94;;;17.21;26.66
5877;BME280;2964;42.144;24.730;2023-02-17T11:27:32;145864.38;;;17.30;26.86
5877;BME280;2964;42.144;24.730;2023-02-17T11:30:07;145808.81;;;17.07;26.76
5877;BME280;2964;42.144;24.730;2023-02-17T11:32:35;145851.78;;;17.25;26.84
5877;BME280;2964;42.144;24.730;2023-02-17T11:35:02;145842.94;;;17.21;25.99
5877;BME280;2964;42.144;24.730;2023-02-17T11:37:36;145824.00;;;17.13;24.85
5877;BME280;2964;42.144;24.730;2023-02-17T11:40:22;145794.94;;;17.02;24.50
5877;BME280;2964;42.144;24.730;2023-02-17T11:42:55;145806.31;;;17.06;24.51
5877;BME280;2964;42.144;24.730;2023-02-17T11:45:22;145813.88;;;17.09;24.70
5877;BME280;2964;42.144;24.730;2023-02-17T11:47:59;145851.78;;;17.25;24.62
5877;BME280;2964;42.144;24.730;2023-02-17T11:50:34;145846.72;;;17.23;24.50
5877;BME280;2964;42.144;24.730;2023-02-17T11:53:17;145830.28;;;17.16;24.96
5877;BME280;2964;42.144;24.730;2023-02-17T11:55:56;145914.91;;;17.50;22.32
5877;BME280;2964;42.144;24.730;2023-02-17T11:58:55;145935.09;;;17.59;22.85
5877;BME280;2964;42.144;24.730;2023-02-17T12:01:42;145879.53;;;17.36;24.18
5877;BME280;2964;42.144;24.730;2023-02-17T12:04:25;145861.88;;;17.29;24.01
5877;BME280;2964;42.144;24.730;2023-02-17T12:07:04;145856.81;;;17.27;24.76
5877;BME280;2964;42.144;24.730;2023-02-17T12:09:44;145866.91;;;17.31;24.48
5877;BME280;2964;42.144;24.730;2023-02-17T12:12:21;145856.81;;;17.27;23.99
5877;BME280;2964;42.144;24.730;2023-02-17T12:14:58;145875.75;;;17.34;23.89
5877;BME280;2964;42.144;24.730;2023-02-17T12:17:37;145879.53;;;17.36;23.83
5877;BME280;2964;42.144;24.730;2023-02-17T12:20:27;145860.63;;;17.28;23.60
5877;BME280;2964;42.144;24.730;2023-02-17T12:23:02;145863.13;;;17.29;23.81
5877;BME280;2964;42.144;24.730;2023-02-17T12:25:32;145919.97;;;17.52;23.01
5877;BME280;2964;42.144;24.730;2023-02-17T12:28:11;145930.03;;;17.56;23.31
5877;BME280;2964;42.144;24.730;2023-02-17T12:30:54;145861.88;;;17.29;23.85
5877;BME280;2964;42.144;24.730;2023-02-17T12:33:36;145892.19;;;17.41;23.43
5877;BME280;2964;42.144;24.730;2023-02-17T12:36:07;145957.81;;;17.68;21.88
5877;BME280;2964;42.144;24.730;2023-02-17T12:38:38;145942.69;;;17.62;22.82
5877;BME280;2964;42.144;24.730;2023-02-17T12:41:12;145950.22;;;17.65;22.83
5877;BME280;2964;42.144;24.730;2023-02-17T12:43:44;145962.88;;;17.70;22.76
5877;BME280;2964;42.144;24.730;2023-02-17T12:46:15;145942.69;;;17.62;23.06
5877;BME280;2964;42.144;24.730;2023-02-17T12:48:46;145941.38;;;17.61;22.75
5877;BME280;2964;42.144;24.730;2023-02-17T12:51:19;145926.25;;;17.55;22.77
5877;BME280;2964;42.144;24.730;2023-02-17T12:53:49;145936.34;;;17.59;23.17
5877;BME280;2964;42.144;24.730;2023-02-17T12:56:47;145854.28;;;17.26;23.77
5877;BME280;2964;42.144;24.730;2023-02-17T12:59:17;145871.94;;;17.33;23.71
5877;BME280;2964;42.144;24.730;2023-02-17T13:01:53;145901.03;;;17.45;23.09
5877;BME280;2964;42.144;24.730;2023-02-17T13:04:22;145879.53;;;17.36;23.35
5877;BME280;2964;42.144;24.730;2023-02-17T13:09:40;145878.28;;;17.35;23.29
5877;BME280;2964;42.144;24.730;2023-02-17T13:12:31;145907.31;;;17.47;23.02
5877;BME280;2964;42.144;24.730;2023-02-17T13:14:59;145960.38;;;17.69;22.43
5877;BME280;2964;42.144;24.730;2023-02-17T13:17:29;145938.88;;;17.60;22.81
5877;BME280;2964;42.144;24.730;2023-02-17T13:20:23;145914.91;;;17.50;22.94
5877;BME280;2964;42.144;24.730;2023-02-17T13:23:02;145873.19;;;17.33;23.67
5877;BME280;2964;42.144;24.730;2023-02-17T13:25:32;145858.06;;;17.27;24.17
5877;BME280;2964;42.144;24.730;2023-02-17T13:28:01;145874.50;;;17.34;23.81
5877;BME280;2964;42.144;24.730;2023-02-17T13:30:42;145856.81;;;17.27;24.07